Weather

DAILY 7 DAY TOTAL
onrain

Note: Some stations are located near irrigated fields and may also report irrigation

Alliston Mount Forest Blyth Guelph Grand Bend Strathroy Woodstock Belmont Simcoe Leamington Chatham West Lorne






Leamington-Base - Historical Weather Data
Date Max Temp (°C) Min Temp (°C) Avg Temp (°C) Rain (mm) 7Day Rain(mm) Total Rain(mm) Avg RH (%)
9/29/2022 17.4 4.2 11.1 0.0 8.6 272.4 81.3
9/28/2022 15.1 8.7 11.5 0.6 8.6 272.4 82.4
9/27/2022 16.3 9.8 12.1 0.0 8.6 271.8 72.9
9/26/2022 17.4 10.8 13.5 0.0 12.2 271.8 77.3
9/25/2022 18.9 11.4 15.1 7.8 12.2 271.8 87.8
9/24/2022 19.2 7.0 14.2 0.2 4.4 264.0 77.7
9/23/2022 18.8 5.4 10.9 0.0 4.2 263.8 75.2
9/22/2022 20.1 8.4 14.2 0.0 4.2 263.8 62.3
9/21/2022 29.2 16.0 22.5 0.6 4.2 263.8 81.5
9/20/2022 27.6 10.6 18.3 3.6 3.6 263.2 79.1
9/19/2022 28.9 13.9 22.0 0.0 9.4 259.6 74.0
9/18/2022 28.3 18.8 22.6 0.0 9.4 259.6 76.5
9/17/2022 29.1 12.3 20.4 0.0 9.4 259.6 83.2
9/16/2022 29.4 11.4 19.1 0.0 9.4 259.6 84.1
9/15/2022 24.4 11.5 16.5 0.0 9.4 259.6 80.2
9/14/2022 26.4 12.7 18.9 0.0 9.4 259.6 82.7
9/13/2022 22.6 11.3 16.4 9.4 9.4 259.6 81.9
9/12/2022 22.4 11.0 18.1 0.0 0.0 250.2 78.2
9/11/2022 28.2 17.8 21.9 0.0 0.0 250.2 81.1
9/10/2022 30.4 14.5 22.1 0.0 1.4 250.2 79.7
9/9/2022 30.4 8.7 19.1 0.0 1.4 250.2 77.9
9/8/2022 28.7 8.6 17.3 0.0 1.4 250.2 78.5
9/7/2022 26.3 10.5 17.7 0.0 1.4 250.2 81.4
9/6/2022 25.1 12.3 19.4 0.0 1.4 250.2 79.0
9/5/2022 22.7 17.2 19.5 0.0 2.0 250.2 92.2
9/4/2022 22.3 18.7 20.4 1.4 6.4 250.2 96.5
9/3/2022 31.0 17.1 23.3 0.0 5.0 248.8 84.1
9/2/2022 31.0 14.0 21.2 0.0 5.0 248.8 81.0
9/1/2022 29.1 12.8 21.0 0.0 5.2 248.8 72.3
8/31/2022 27.3 14.9 21.1 0.0 10.6 248.8 66.4
8/30/2022 27.1 17.3 22.0 0.6 10.6 248.8 78.0
8/29/2022 32.1 19.4 24.2 4.4 10.0 248.2 86.0
8/28/2022 31.3 12.7 21.9 0.0 5.6 243.8 80.4
8/27/2022 27.5 10.8 18.3 0.0 15.4 243.8 81.3
8/26/2022 25.2 14.6 20.7 0.2 20.4 243.8 87.9
8/25/2022 30.6 15.7 22.5 5.4 20.2 243.6 81.6
8/24/2022 30.7 14.7 22.0 0.0 15.0 238.2 78.8
8/23/2022 28.7 14.6 21.0 0.0 19.2 238.2 81.9
8/22/2022 25.7 16.7 20.7 0.0 19.2 238.2 88.1
8/21/2022 28.0 17.2 21.1 9.8 19.2 238.2 91.4
8/20/2022 32.3 15.3 22.1 5.0 9.4 228.4 86.2
8/19/2022 31.2 14.1 22.0 0.0 4.4 223.4 78.2
8/18/2022 28.7 13.9 20.1 0.2 4.4 223.4 84.1
8/17/2022 28.6 13.0 19.5 4.2 4.2 223.2 81.7
8/16/2022 28.5 12.9 19.7 0.0 0.0 219.0 77.1
8/15/2022 28.4 15.0 20.6 0.0 0.2 219.0 75.0
8/14/2022 25.2 16.6 19.6 0.0 10.8 219.0 80.1
8/13/2022 25.3 10.7 18.1 0.0 10.8 219.0 77.9
8/12/2022 27.0 9.5 17.9 0.0 10.8 219.0 76.7
8/11/2022 25.8 12.1 19.8 0.0 92.4 219.0 72.0
8/10/2022 29.0 13.9 21.0 0.0 92.4 219.0 76.3
8/9/2022 26.7 15.9 20.7 0.2 97.8 219.0 78.2
8/8/2022 31.1 20.3 24.8 10.6 97.6 218.8 91.0
8/7/2022 33.5 22.5 26.6 0.0 87.0 208.2 85.4
8/6/2022 32.8 21.0 26.3 0.0 87.0 208.2 83.5
8/5/2022 32.0 18.9 25.0 81.6 87.0 208.2 87.6
8/4/2022 29.2 21.3 24.1 0.0 5.4 126.6 88.8
8/3/2022 34.3 16.1 24.1 5.4 5.4 126.6 83.8
8/2/2022 29.8 16.2 22.8 0.0 0.6 121.2 71.7
8/1/2022 31.0 17.8 24.4 0.0 0.6 121.2 77.8
7/31/2022 31.0 13.3 22.2 0.0 0.6 121.2 75.3
7/30/2022 29.2 14.3 21.2 0.0 5.2 121.2 70.1
7/29/2022 28.6 11.8 20.5 0.0 5.4 121.2 67.8
7/28/2022 30.0 17.3 24.4 0.0 17.0 121.2 70.9
7/27/2022 28.8 15.4 21.5 0.6 17.0 121.2 88.5
7/26/2022 30.4 12.7 20.9 0.0 23.4 120.6 73.4
7/25/2022 26.2 14.9 21.8 0.0 23.4 120.6 69.5
7/24/2022 30.8 20.3 25.0 4.6 33.0 120.6 82.2
7/23/2022 30.9 18.9 23.6 0.2 46.0 116.0 83.0
7/22/2022 31.2 18.4 24.6 11.6 45.8 115.8 77.3
7/21/2022 31.3 20.0 25.6 0.0 34.2 104.2 68.2
7/20/2022 32.8 20.8 26.0 7.0 34.2 104.2 77.4
7/19/2022 32.1 17.0 25.5 0.0 32.4 97.2 73.7
7/18/2022 30.4 19.8 23.8 9.6 32.4 97.2 82.0
7/17/2022 25.4 17.0 20.9 17.6 22.8 87.6 94.5
7/16/2022 28.8 18.7 22.7 0.0 5.2 70.0 75.5
7/15/2022 29.8 11.4 20.9 0.0 5.2 70.0 68.7
7/14/2022 28.3 13.0 20.0 0.0 5.2 70.0 74.4
7/13/2022 26.9 12.7 19.9 5.2 5.2 70.0 83.2
7/12/2022 29.7 19.5 24.9 0.0 4.0 64.8 60.7
7/11/2022 31.6 10.6 22.6 0.0 16.8 64.8 71.0
7/10/2022 27.4 11.0 19.5 0.0 16.8 64.8 66.7
7/9/2022 27.6 13.3 20.6 0.0 16.8 64.8 62.3
7/8/2022 29.7 16.6 22.5 0.0 16.8 64.8 74.5
7/7/2022 28.3 14.4 21.8 0.0 19.2 64.8 77.8
7/6/2022 25.2 17.0 20.9 4.0 19.2 64.8 86.3
7/5/2022 31.9 20.0 25.3 12.8 15.2 60.8 77.6
7/4/2022 32.9 15.5 24.7 0.0 2.4 48.0 63.2
7/3/2022 27.2 13.6 21.1 0.0 2.4 48.0 60.1
7/2/2022 29.3 15.0 22.4 0.0 2.4 48.0 62.9
7/1/2022 32.4 20.5 24.5 2.4 2.4 48.0 69.3
6/30/2022 33.2 16.2 25.3 0.0 0.0 45.6 60.4
6/29/2022 28.8 13.8 21.2 0.0 0.0 45.6 66.4
6/28/2022 26.3 7.2 18.4 0.0 0.0 45.6 59.4
6/27/2022 24.8 13.5 19.9 0.0 0.0 45.6 46.4
6/26/2022 30.0 20.3 24.5 0.0 2.8 45.6 66.2
6/25/2022 30.0 15.0 23.5 0.0 2.8 45.6 63.2
6/24/2022 29.9 11.2 21.8 0.0 2.8 45.6 59.4
6/23/2022 26.9 12.1 20.5 0.0 2.8 45.6 60.6
6/22/2022 33.4 19.0 28.0 0.0 2.8 45.6 50.5
6/21/2022 34.0 17.6 26.2 0.0 2.8 45.6 61.0
6/20/2022 26.5 14.7 20.2 2.8 2.8 45.6 72.8
6/19/2022 25.5 8.1 17.7 0.0 0.0 42.8 54.8
6/18/2022 21.3 10.8 16.5 0.0 0.0 42.8 47.2
6/17/2022 28.8 16.4 24.6 0.0 0.0 42.8 43.7
6/16/2022 33.5 23.0 27.8 0.0 0.0 42.8 62.7
6/15/2022 34.5 19.7 27.5 0.0 0.0 42.8 70.4
6/14/2022 23.3 16.3 20.2 0.0 0.0 42.8 76.8
6/13/2022 25.2 13.7 19.8 0.0 0.0 42.8 62.5
6/12/2022 28.4 16.7 22.0 0.0 0.0 42.8 72.9
6/11/2022 26.0 15.3 20.8 0.0 0.0 42.8 65.0
6/10/2022 25.6 12.0 18.6 0.0 0.0 42.8 66.7
6/9/2022 22.2 11.8 16.7 0.0 0.0 42.8 78.8
6/8/2022 19.5 11.0 16.0 0.0 0.0 42.8 82.5
6/7/2022 22.5 14.5 18.6 0.0 0.0 42.8 88.5
6/6/2022 27.3 16.3 20.6 0.0 0.0 42.8 74.0
6/5/2022 26.2 13.7 18.6 0.0 0.0 42.8 56.1
6/4/2022 21.7 7.6 15.6 0.0 0.0 42.8 55.7
6/3/2022 27.1 12.3 20.4 0.0 0.0 42.8 44.6
6/2/2022 22.6 12.9 16.2 0.0 0.0 42.8 67.2
6/1/2022 29.9 14.7 23.2 0.0 1.2 42.8 67.6
5/31/2022 32.8 18.1 25.9 0.0 1.4 42.8 60.9
5/30/2022 31.8 16.9 24.6 0.0 1.4 42.8 62.2
5/29/2022 26.1 13.9 19.8 0.0 1.4 42.8 72.8
5/28/2022 24.0 12.4 17.2 0.0 1.8 42.8 70.4
5/27/2022 24.2 14.0 18.4 0.0 3.8 42.8 85.0
5/26/2022 25.4 16.3 19.6 1.2 4.0 42.8 86.9
5/25/2022 18.5 12.2 15.5 0.2 3.0 41.6 78.0
5/24/2022 20.2 5.2 13.2 0.0 11.2 41.4 61.4
5/23/2022 15.8 9.5 12.5 0.0 11.2 41.4 65.0
5/22/2022 17.8 10.7 14.2 0.4 18.2 41.4 87.5
5/21/2022 28.5 17.0 22.1 2.0 17.8 41.0 73.4
5/20/2022 27.7 16.4 21.9 0.2 15.8 39.0 73.2
5/19/2022 25.1 12.5 17.6 0.2 15.6 38.8 81.7
5/18/2022 12.3 5.9 10.4 8.4 15.4 38.6 92.2
5/17/2022 19.2 7.7 13.8 0.0 7.0 30.2 61.5
5/16/2022 23.5 11.7 17.0 7.0 7.0 30.2 67.9
5/15/2022 28.5 14.1 20.9 0.0 0.0 23.2 65.3
5/14/2022 27.9 14.0 19.9 0.0 0.0 23.2 72.3
5/13/2022 27.4 13.2 19.9 0.0 0.0 23.2 63.1
5/12/2022 28.3 8.9 18.1 0.0 2.0 23.2 45.0
5/11/2022 25.8 12.7 17.7 0.0 4.4 23.2 43.9
5/10/2022 25.2 6.8 16.1 0.0 4.6 23.2 45.2
5/9/2022 19.8 6.6 13.3 0.0 21.2 23.2 54.0
5/8/2022 15.7 1.4 9.7 0.0 21.2 23.2 60.2
5/7/2022 17.3 4.2 12.0 0.0 23.2 23.2 47.8
5/6/2022 14.3 8.5 11.0 2.0 23.2 23.2 71.2
5/5/2022 14.2 1.7 8.0 2.4 21.2 21.2 82.7
5/4/2022 13.5 4.2 9.5 0.2 18.8 18.8 87.3
5/3/2022 11.3 7.9 9.4 16.6 18.6 18.6 92.1
5/2/2022 15.5 8.3 11.2 0.0 2.0 2.0 76.1
5/1/2022 22.6 7.5 13.2 2.0 12.8 2.0 69.4